Time;durP1;ratioP1;P1;durP2;ratioP2;P2;SDS_P1;SDS_P2;PMS_P1;PMS_P2;Temp;Humidity;BMP_temperature;BMP_pressure;BME280_temperature;BME280_humidity;BME280_pressure;Samples;Min_cycle;Max_cycle;Signal;HPM_P1;HPM_P2
2021/12/04 00:02:04;;;;;;;2.20;0.90;;;;;;;10.99;59.23;101455.03;5033050;28;20131;-69
2021/12/04 00:04:35;;;;;;;4.65;1.25;;;;;;;10.98;58.88;101452.41;5033583;28;20496;-69
2021/12/04 00:07:05;;;;;;;5.40;1.45;;;;;;;10.91;59.86;101448.69;5033369;28;20049;-69
2021/12/04 00:09:34;;;;;;;2.85;1.25;;;;;;;10.89;60.06;101451.22;5033654;28;20049;-69
2021/12/04 00:12:03;;;;;;;2.30;1.20;;;;;;;10.85;60.33;101443.25;5032658;28;20690;-69
2021/12/04 00:14:37;;;;;;;2.72;1.30;;;;;;;10.75;62.08;101433.38;5034080;28;20050;-69
2021/12/04 00:17:06;;;;;;;3.63;1.35;;;;;;;10.63;62.74;101432.06;5035721;28;20503;-70
2021/12/04 00:19:35;;;;;;;3.40;1.50;;;;;;;10.57;62.52;101425.78;5033254;28;20053;-69
2021/12/04 00:22:05;;;;;;;3.72;1.75;;;;;;;10.47;63.66;101419.34;5032658;28;20061;-69
2021/12/04 00:24:34;;;;;;;7.43;0.98;;;;;;;10.43;62.72;101432.97;5032942;28;20041;-70
2021/12/04 00:27:02;;;;;;;3.03;1.42;;;;;;;10.35;62.90;101440.41;5032964;28;20057;-69
2021/12/04 00:29:31;;;;;;;8.85;3.40;;;;;;;10.27;65.11;101434.00;5033114;28;20064;-69
2021/12/04 00:32:04;;;;;;;8.90;4.20;;;;;;;10.12;66.98;101430.78;5032540;28;20491;-70
2021/12/04 00:34:35;;;;;;;12.20;5.00;;;;;;;10.11;68.73;101450.59;5032697;28;20057;-69
2021/12/04 00:50:56;;;;;;;11.48;5.32;;;;;;;9.59;76.43;101458.66;4985562;28;20068;-71
2021/12/04 00:53:24;;;;;;;9.02;3.72;;;;;;;9.47;84.81;101447.78;5031883;28;20501;-71
2021/12/04 00:55:53;;;;;;;10.35;4.30;;;;;;;9.32;84.46;101432.44;5032425;28;20072;-72
2021/12/04 00:58:21;;;;;;;9.57;3.92;;;;;;;9.28;87.08;101444.34;5032358;28;20046;-73
2021/12/04 01:00:50;;;;;;;15.02;6.00;;;;;;;9.19;85.28;101441.34;5032586;28;20049;-71
2021/12/04 01:03:20;;;;;;;13.50;4.93;;;;;;;9.12;87.79;101453.09;5032180;28;20053;-71
2021/12/04 01:05:49;;;;;;;11.60;5.60;;;;;;;9.04;87.00;101453.53;5032669;28;20581;-71
2021/12/04 01:08:17;;;;;;;9.95;4.93;;;;;;;8.96;89.45;101454.06;5032249;28;20049;-71
2021/12/04 01:10:46;;;;;;;13.35;6.18;;;;;;;8.87;89.74;101452.75;5032198;28;20042;-71
2021/12/04 01:13:15;;;;;;;13.18;7.25;;;;;;;8.77;86.60;101447.16;5032257;28;20049;-72
2021/12/04 01:15:45;;;;;;;14.98;6.47;;;;;;;8.75;89.52;101442.72;5033770;28;20191;-72
2021/12/04 01:18:14;;;;;;;9.98;4.88;;;;;;;8.72;88.90;101432.25;5032229;28;20407;-70
2021/12/04 01:20:44;;;;;;;11.60;6.45;;;;;;;8.69;88.32;101432.13;5033084;28;20061;-72
2021/12/04 01:23:13;;;;;;;14.57;6.53;;;;;;;8.66;86.26;101424.22;5031714;28;20657;-71
2021/12/04 01:25:41;;;;;;;10.73;5.88;;;;;;;8.60;85.64;101425.69;5033459;28;20152;-71
2021/12/04 01:28:10;;;;;;;12.50;6.38;;;;;;;8.56;86.78;101423.78;5032137;28;20498;-72
2021/12/04 01:30:39;;;;;;;11.27;5.88;;;;;;;8.52;87.04;101419.31;5031373;28;20049;-71
2021/12/04 01:33:07;;;;;;;15.68;6.50;;;;;;;8.48;87.31;101414.81;5031586;28;20139;-71
2021/12/04 01:35:36;;;;;;;15.30;6.68;;;;;;;8.41;88.70;101409.25;5032643;28;20077;-72
2021/12/04 01:38:06;;;;;;;8.85;4.88;;;;;;;8.22;95.73;101407.44;5032885;28;20134;-73
2021/12/04 01:40:35;;;;;;;9.10;4.50;;;;;;;7.99;95.34;101407.16;5033147;28;20126;-71
2021/12/04 01:43:03;;;;;;;10.70;5.15;;;;;;;7.83;94.33;101402.06;5032615;28;20173;-70
2021/12/04 01:45:32;;;;;;;10.38;6.10;;;;;;;7.78;95.94;101408.66;5032411;28;20049;-71
2021/12/04 01:48:01;;;;;;;11.95;6.38;;;;;;;7.78;98.39;101409.53;5031644;28;20099;-70
2021/12/04 01:50:30;;;;;;;11.75;5.35;;;;;;;7.73;100.00;101411.00;5031503;28;20093;-70
2021/12/04 01:53:00;;;;;;;11.40;5.45;;;;;;;7.63;100.00;101401.94;5031166;28;20058;-70
2021/12/04 01:55:33;;;;;;;5.70;3.72;;;;;;;7.54;100.00;101401.47;5031353;28;20162;-70
2021/12/04 01:58:02;;;;;;;11.35;4.65;;;;;;;7.51;100.00;101409.00;5031369;28;20568;-70
2021/12/04 02:00:33;;;;;;;13.20;5.18;;;;;;;7.51;100.00;101414.16;5031466;28;20517;-72
2021/12/04 02:03:03;;;;;;;11.07;4.47;;;;;;;7.49;100.00;101416.66;5031078;28;20414;-72
2021/12/04 02:05:31;;;;;;;7.00;3.83;;;;;;;7.48;98.96;101424.31;5031370;28;20478;-70
2021/12/04 02:08:00;;;;;;;7.65;3.40;;;;;;;7.43;97.73;101418.03;5031157;28;20136;-70
2021/12/04 02:10:30;;;;;;;8.73;3.90;;;;;;;7.39;97.82;101418.66;5031456;28;20045;-73
2021/12/04 02:12:59;;;;;;;9.07;4.03;;;;;;;7.37;97.81;101409.97;5033427;28;20042;-70
2021/12/04 02:15:28;;;;;;;9.98;3.88;;;;;;;7.33;98.47;101404.69;5031354;28;20503;-70
2021/12/04 02:17:56;;;;;;;8.77;3.97;;;;;;;7.31;98.30;101403.72;5031107;28;20052;-70
2021/12/04 02:20:29;;;;;;;12.40;4.90;;;;;;;7.28;99.12;101402.66;5031475;28;20509;-71
2021/12/04 02:22:58;;;;;;;7.25;3.67;;;;;;;7.26;99.06;101406.81;5030428;28;20123;-71
2021/12/04 02:25:27;;;;;;;7.85;3.88;;;;;;;7.23;99.23;101414.41;5031163;28;20072;-72
2021/12/04 02:27:55;;;;;;;7.00;4.65;;;;;;;7.19;99.17;101427.88;5030859;28;20414;-70
2021/12/04 02:30:27;;;;;;;7.65;3.83;;;;;;;7.15;99.39;101439.72;5031094;28;20499;-72
2021/12/04 02:33:12;;;;;;;8.60;3.70;;;;;;;7.10;99.79;101436.91;5030452;28;20128;-70
2021/12/04 02:35:47;;;;;;;7.38;3.53;;;;;;;7.07;99.91;101440.97;5031155;28;20045;-71
2021/12/04 02:38:15;;;;;;;12.80;4.30;;;;;;;7.04;99.64;101435.69;5030934;28;20503;-69
2021/12/04 02:40:46;;;;;;;10.02;4.10;;;;;;;7.01;100.00;101440.63;5031031;28;20049;-69
2021/12/04 02:43:14;;;;;;;7.78;4.10;;;;;;;6.97;100.00;101433.59;5033314;28;20649;-69
2021/12/04 02:45:43;;;;;;;7.07;3.78;;;;;;;6.89;100.00;101436.63;5034797;28;20053;-69
2021/12/04 02:48:12;;;;;;;10.68;3.88;;;;;;;6.83;100.00;101445.69;5034685;28;20099;-71
2021/12/04 02:50:42;;;;;;;7.85;4.32;;;;;;;6.79;100.00;101454.91;5034680;28;20049;-72
2021/12/04 02:53:11;;;;;;;6.38;3.95;;;;;;;6.78;100.00;101442.84;5034399;28;20407;-71
2021/12/04 02:55:40;;;;;;;8.48;3.78;;;;;;;6.70;100.00;101447.53;5035241;28;20053;-71
2021/12/04 02:58:09;;;;;;;5.60;3.05;;;;;;;6.55;100.00;101433.84;5035336;28;20132;-71
2021/12/04 03:00:41;;;;;;;6.70;3.20;;;;;;;6.38;100.00;101438.00;5035426;28;20107;-71
2021/12/04 03:03:10;;;;;;;5.63;3.55;;;;;;;6.33;100.00;101446.28;5034630;28;20053;-73
2021/12/04 03:05:38;;;;;;;7.97;3.38;;;;;;;6.29;100.00;101435.78;5035025;28;20458;-71
2021/12/04 03:08:09;;;;;;;5.97;3.20;;;;;;;6.27;100.00;101447.66;5036238;28;20049;-71
2021/12/04 03:10:37;;;;;;;5.35;2.33;;;;;;;6.23;100.00;101430.31;5030130;28;20046;-73
2021/12/04 03:13:08;;;;;;;6.03;3.13;;;;;;;6.14;100.00;101426.31;5016864;28;20050;-71
2021/12/04 03:15:42;;;;;;;10.30;3.13;;;;;;;6.05;100.00;101418.97;5016290;28;20057;-72
2021/12/04 03:18:11;;;;;;;5.38;2.95;;;;;;;5.96;100.00;101409.06;5016704;28;20053;-71
2021/12/04 03:20:43;;;;;;;7.78;3.00;;;;;;;5.94;100.00;101432.84;5036323;28;20496;-72
2021/12/04 03:23:24;;;;;;;8.60;3.60;;;;;;;5.96;100.00;101437.31;5034333;28;20124;-71
2021/12/04 03:25:55;;;;;;;6.97;3.53;;;;;;;5.96;100.00;101447.59;5035051;28;20115;-72
2021/12/04 03:28:23;;;;;;;8.10;4.18;;;;;;;5.98;100.00;101453.69;5034433;28;20156;-71
2021/12/04 03:30:56;;;;;;;7.97;3.85;;;;;;;6.01;100.00;101465.84;5034612;28;20045;-71
2021/12/04 03:41:42;;;;;;;8.80;3.90;;;;;;;5.94;100.00;101459.44;5034408;28;20060;-72
2021/12/04 03:44:11;;;;;;;7.85;4.20;;;;;;;5.85;100.00;101457.19;5033997;28;20458;-72
2021/12/04 03:46:39;;;;;;;9.18;3.85;;;;;;;5.72;100.00;101448.66;5034079;28;20107;-72
2021/12/04 03:49:08;;;;;;;5.97;2.92;;;;;;;5.57;100.00;101462.34;5034444;28;20128;-72
2021/12/04 03:51:36;;;;;;;6.22;3.03;;;;;;;5.45;100.00;101464.13;5034205;28;20045;-71
2021/12/04 03:54:06;;;;;;;7.18;2.95;;;;;;;5.38;100.00;101459.41;5033649;28;20049;-72
2021/12/04 03:56:36;;;;;;;7.40;3.45;;;;;;;5.39;100.00;101467.22;5034144;28;20053;-72
2021/12/04 03:59:05;;;;;;;9.55;3.25;;;;;;;5.44;100.00;101446.97;5034308;28;20042;-72
2021/12/04 04:01:33;;;;;;;6.82;3.40;;;;;;;5.38;100.00;101426.06;5033861;28;20057;-72
2021/12/04 04:04:02;;;;;;;5.18;3.25;;;;;;;5.33;100.00;101424.91;5033930;28;20061;-71
2021/12/04 04:06:30;;;;;;;7.18;2.85;;;;;;;5.35;100.00;101425.88;5033992;28;20088;-72
2021/12/04 04:09:00;;;;;;;7.88;3.63;;;;;;;5.37;100.00;101426.88;5034260;28;20053;-71
2021/12/04 04:11:32;;;;;;;8.57;3.95;;;;;;;5.39;100.00;101413.34;5023183;28;20046;-72
2021/12/04 04:14:01;;;;;;;8.52;3.65;;;;;;;5.38;100.00;101405.53;5014706;28;20050;-74
2021/12/04 04:16:29;;;;;;;9.90;3.45;;;;;;;5.39;100.00;101402.19;5013998;28;20053;-72
2021/12/04 04:18:58;;;;;;;9.48;3.45;;;;;;;5.39;100.00;101394.50;5021642;28;20045;-73
2021/12/04 04:21:26;;;;;;;5.95;3.05;;;;;;;5.38;100.00;101397.81;5034255;28;20076;-72
2021/12/04 04:23:55;;;;;;;9.30;3.97;;;;;;;5.37;100.00;101394.38;5033218;28;20487;-73
2021/12/04 04:26:23;;;;;;;6.28;3.38;;;;;;;5.37;100.00;101403.78;5033507;28;20076;-71
2021/12/04 04:28:54;;;;;;;7.25;3.20;;;;;;;5.36;100.00;101397.75;5033741;28;20088;-73
2021/12/04 04:31:22;;;;;;;7.25;3.65;;;;;;;5.34;100.00;101404.47;5033534;28;20065;-71
2021/12/04 04:33:56;;;;;;;11.65;3.63;;;;;;;5.31;100.00;101413.66;5032994;28;20144;-71
2021/12/04 04:36:37;;;;;;;6.18;3.08;;;;;;;5.28;100.00;101418.59;5033428;28;20045;-71
2021/12/04 04:39:16;;;;;;;9.10;4.10;;;;;;;5.24;100.00;101413.28;5033585;28;20049;-73
2021/12/04 04:58:27;;;;;;;7.22;3.80;;;;;;;4.59;100.00;101399.78;5033441;28;20446;-73
2021/12/04 05:12:02;;;;;;;13.50;6.53;;;;;;;4.67;100.00;101431.91;5018579;28;20061;-73
2021/12/04 05:14:30;;;;;;;11.73;6.53;;;;;;;4.69;100.00;101426.88;5012682;28;20054;-73
2021/12/04 05:17:05;;;;;;;15.15;6.63;;;;;;;4.68;100.00;101432.81;5013204;28;20041;-73
2021/12/04 05:19:41;;;;;;;17.13;8.20;;;;;;;4.68;100.00;101430.25;5012730;28;20092;-73
2021/12/04 05:22:11;;;;;;;14.85;7.25;;;;;;;4.65;100.00;101432.59;5024652;28;20531;-74
2021/12/04 05:24:40;;;;;;;11.13;6.93;;;;;;;4.62;100.00;101439.31;5032285;28;20147;-74
2021/12/04 05:27:09;;;;;;;18.20;6.25;;;;;;;4.62;100.00;101438.41;5032367;28;20502;-73
2021/12/04 05:29:38;;;;;;;12.52;6.47;;;;;;;4.61;100.00;101437.53;5032302;28;20096;-72
2021/12/04 05:32:10;;;;;;;12.15;5.85;;;;;;;4.63;100.00;101424.84;5031873;28;20072;-73
2021/12/04 05:34:39;;;;;;;15.70;6.95;;;;;;;4.62;100.00;101431.59;5032247;28;20558;-73
2021/12/04 05:37:08;;;;;;;14.25;6.63;;;;;;;4.58;100.00;101427.09;5032330;28;20135;-72
2021/12/04 05:39:37;;;;;;;17.90;6.35;;;;;;;4.40;100.00;101419.09;5032365;28;20103;-73
2021/12/04 05:42:06;;;;;;;13.88;6.28;;;;;;;4.24;100.00;101418.91;5032086;28;20157;-73
2021/12/04 05:44:34;;;;;;;13.73;6.10;;;;;;;4.18;100.00;101413.38;5032122;28;20156;-73
2021/12/04 05:47:08;;;;;;;13.73;4.88;;;;;;;4.10;100.00;101399.16;5032109;28;20406;-73
2021/12/04 05:49:49;;;;;;;12.85;5.68;;;;;;;4.17;100.00;101404.81;5032025;28;20045;-71
2021/12/04 05:52:23;;;;;;;15.18;6.25;;;;;;;4.12;100.00;101397.59;5031644;28;20049;-71
2021/12/04 05:57:33;;;;;;;19.13;6.72;;;;;;;4.24;100.00;101413.78;5031435;28;20077;-73
2021/12/04 06:00:02;;;;;;;13.25;7.03;;;;;;;4.24;100.00;101406.09;5032049;28;20053;-72
2021/12/04 06:02:30;;;;;;;21.35;6.90;;;;;;;4.23;100.00;101404.31;5031581;28;20053;-73
2021/12/04 06:05:01;;;;;;;17.15;7.28;;;;;;;4.23;100.00;101406.88;5032009;28;20049;-72
2021/12/04 06:07:29;;;;;;;16.50;7.88;;;;;;;4.23;100.00;101406.88;5031671;28;20395;-73
2021/12/04 06:09:58;;;;;;;18.23;7.32;;;;;;;4.23;100.00;101396.63;5031982;28;20051;-73
2021/12/04 06:12:26;;;;;;;13.85;7.05;;;;;;;4.20;100.00;101396.44;5014068;28;20042;-72
2021/12/04 06:14:55;;;;;;;16.95;7.57;;;;;;;4.15;100.00;101385.88;5012609;28;20100;-73
2021/12/04 06:17:25;;;;;;;16.90;7.05;;;;;;;4.12;100.00;101374.53;5012018;28;20100;-73
2021/12/04 06:22:41;;;;;;;18.77;7.90;;;;;;;4.15;100.00;101374.75;5032375;28;20057;-73
2021/12/04 06:25:13;;;;;;;15.30;7.13;;;;;;;4.15;100.00;101378.19;5031835;28;20065;-72
2021/12/04 06:27:42;;;;;;;24.83;8.48;;;;;;;4.15;100.00;101373.06;5031676;28;20049;-73
2021/12/04 06:30:13;;;;;;;19.08;7.80;;;;;;;4.15;100.00;101361.94;5031787;28;20492;-73
2021/12/04 06:32:41;;;;;;;15.20;7.60;;;;;;;4.15;100.00;101367.06;5030959;28;20049;-72
2021/12/04 06:35:12;;;;;;;14.20;6.93;;;;;;;4.14;100.00;101371.28;5031546;28;20100;-74
2021/12/04 06:37:42;;;;;;;15.68;7.88;;;;;;;4.13;100.00;101384.88;5031401;28;20049;-73
2021/12/04 06:40:13;;;;;;;19.75;8.18;;;;;;;4.11;100.00;101385.59;5031981;28;20049;-73
2021/12/04 06:42:42;;;;;;;21.00;9.43;;;;;;;4.09;100.00;101380.34;5031307;28;20049;-73
2021/12/04 06:45:12;;;;;;;20.83;10.13;;;;;;;4.09;100.00;101382.03;5031632;28;20053;-73
2021/12/04 06:47:47;;;;;;;19.88;9.70;;;;;;;4.06;100.00;101384.41;5031446;28;20046;-73
2021/12/04 06:50:20;;;;;;;19.92;10.18;;;;;;;4.05;100.00;101392.84;5031444;28;20052;-73
2021/12/04 06:52:50;;;;;;;21.33;9.23;;;;;;;4.03;100.00;101391.84;5023169;28;20060;-73
2021/12/04 06:55:26;;;;;;;16.83;9.38;;;;;;;4.03;100.00;101391.84;5031419;28;20607;-73
2021/12/04 06:57:54;;;;;;;19.40;8.93;;;;;;;4.01;100.00;101394.34;5031201;28;20495;-71
2021/12/04 07:00:25;;;;;;;22.42;9.48;;;;;;;3.87;100.00;101377.16;5031334;28;20054;-72
2021/12/04 07:02:54;;;;;;;17.05;5.50;;;;;;;3.65;100.00;101385.09;5030811;28;20099;-72
2021/12/04 07:05:22;;;;;;;12.50;5.57;;;;;;;3.43;100.00;101370.81;5031339;28;20142;-70
2021/12/04 07:07:53;;;;;;;12.98;6.20;;;;;;;3.35;100.00;101374.56;5030958;28;20064;-73
2021/12/04 07:10:21;;;;;;;11.13;6.15;;;;;;;3.28;100.00;101385.16;5028046;28;20042;-73
2021/12/04 07:12:50;;;;;;;13.20;5.60;;;;;;;3.30;100.00;101383.59;5012296;28;20046;-71
2021/12/04 07:15:18;;;;;;;10.50;5.25;;;;;;;3.34;100.00;101381.34;5012030;28;20057;-72
2021/12/04 07:17:47;;;;;;;13.85;5.95;;;;;;;3.41;100.00;101387.75;5011643;28;20064;-72
2021/12/04 07:20:15;;;;;;;10.27;6.15;;;;;;;3.43;100.00;101380.19;5011201;28;20050;-72
2021/12/04 07:22:44;;;;;;;10.65;5.18;;;;;;;3.42;100.00;101398.88;5025912;28;20111;-72
2021/12/04 07:25:14;;;;;;;12.52;6.30;;;;;;;3.46;100.00;101395.72;5030855;28;20049;-72
2021/12/04 07:27:43;;;;;;;11.48;6.05;;;;;;;3.49;100.00;101401.06;5031430;28;20057;-72
2021/12/04 07:30:12;;;;;;;13.25;6.07;;;;;;;3.52;100.00;101406.38;5034751;28;20050;-70
2021/12/04 07:32:40;;;;;;;14.60;5.97;;;;;;;3.55;100.00;101401.47;5033881;28;20053;-72
2021/12/04 07:35:10;;;;;;;15.70;6.13;;;;;;;3.57;100.00;101405.03;5034417;28;20151;-71
2021/12/04 07:37:39;;;;;;;10.13;5.63;;;;;;;3.59;100.00;101388.09;5034392;28;20053;-72
2021/12/04 07:40:08;;;;;;;10.13;5.60;;;;;;;3.59;100.00;101392.34;5034324;28;20068;-71
2021/12/04 07:42:38;;;;;;;10.25;5.95;;;;;;;3.60;100.00;101389.00;5033753;28;20457;-71
2021/12/04 07:45:08;;;;;;;10.25;5.78;;;;;;;3.61;100.00;101386.53;5033897;28;20087;-71
2021/12/04 07:47:37;;;;;;;17.45;6.03;;;;;;;3.61;100.00;101388.22;5033957;28;20447;-70
2021/12/04 07:50:07;;;;;;;12.90;5.65;;;;;;;3.60;100.00;101395.03;5034153;28;20041;-72
2021/12/04 07:52:37;;;;;;;14.18;6.65;;;;;;;3.59;100.00;101393.22;5033805;28;20049;-72
2021/12/04 07:55:07;;;;;;;16.63;6.28;;;;;;;3.58;100.00;101391.47;5033764;28;20042;-71
2021/12/04 07:57:36;;;;;;;8.70;5.63;;;;;;;3.59;100.00;101400.91;5033827;28;20503;-72
2021/12/04 08:00:11;;;;;;;13.75;6.03;;;;;;;3.61;100.00;101396.78;5033864;28;20499;-72
2021/12/04 08:02:41;;;;;;;16.20;7.68;;;;;;;3.65;100.00;101401.34;5033166;28;20085;-71
2021/12/04 08:05:10;;;;;;;17.55;7.07;;;;;;;3.68;100.00;101409.19;5033798;28;20446;-72
2021/12/04 08:07:39;;;;;;;14.27;7.32;;;;;;;3.71;100.00;101413.63;5033873;28;20089;-71
2021/12/04 08:10:13;;;;;;;16.38;7.45;;;;;;;3.74;100.00;101414.75;5032282;28;20404;-71
2021/12/04 08:12:42;;;;;;;18.42;7.72;;;;;;;3.74;100.00;101403.63;5013906;28;20050;-71
2021/12/04 08:15:13;;;;;;;14.95;7.63;;;;;;;3.72;100.00;101398.41;5017008;28;20566;-71
2021/12/04 08:17:43;;;;;;;18.73;9.75;;;;;;;3.74;100.00;101401.94;5013959;28;20495;-71
2021/12/04 08:20:15;;;;;;;14.45;6.40;;;;;;;3.76;100.00;101391.81;5013900;28;20050;-71
2021/12/04 08:22:45;;;;;;;15.93;6.85;;;;;;;3.75;100.00;101395.16;5014236;28;20097;-72
2021/12/04 08:25:16;;;;;;;14.95;8.07;;;;;;;3.77;100.00;101403.81;5012717;28;20049;-72
2021/12/04 08:27:45;;;;;;;18.63;6.95;;;;;;;3.82;100.00;101404.13;5013490;28;20088;-71
2021/12/04 08:30:20;;;;;;;15.75;8.05;;;;;;;3.88;100.00;101402.88;5028835;28;20053;-71
2021/12/04 08:32:52;;;;;;;17.80;8.07;;;;;;;3.94;100.00;101395.59;5032913;28;20046;-71
2021/12/04 08:35:23;;;;;;;11.88;6.22;;;;;;;4.02;100.00;101390.97;5033360;28;20061;-71
2021/12/04 08:37:54;;;;;;;15.55;6.55;;;;;;;4.08;100.00;101376.03;5033697;28;20049;-72
2021/12/04 08:40:23;;;;;;;14.13;6.60;;;;;;;4.12;100.00;101366.84;5034607;28;20060;-71
2021/12/04 08:42:51;;;;;;;22.85;10.13;;;;;;;4.15;100.00;101372.19;5033238;28;20050;-71
2021/12/04 08:45:22;;;;;;;21.45;8.93;;;;;;;4.13;100.00;101358.41;5033410;28;20103;-71
2021/12/04 08:47:50;;;;;;;21.63;8.70;;;;;;;4.19;100.00;101358.78;5033186;28;20045;-72
2021/12/04 08:50:26;;;;;;;21.27;8.07;;;;;;;4.18;100.00;101349.34;5032895;28;20049;-71
2021/12/04 08:52:56;;;;;;;19.15;9.07;;;;;;;4.17;100.00;101340.78;5032784;28;20075;-72
2021/12/04 08:55:25;;;;;;;20.92;9.02;;;;;;;4.23;100.00;101340.25;5032661;28;20077;-71
2021/12/04 08:57:54;;;;;;;22.60;10.20;;;;;;;4.29;100.00;101338.09;5032738;28;20046;-72
2021/12/04 09:00:27;;;;;;;22.38;9.38;;;;;;;4.33;100.00;101332.41;5032476;28;20045;-72
2021/12/04 09:02:57;;;;;;;23.67;9.95;;;;;;;4.38;100.00;101331.00;5032209;28;20443;-72
2021/12/04 09:05:26;;;;;;;24.60;10.07;;;;;;;4.45;100.00;101332.28;5032234;28;20060;-72
2021/12/04 09:07:56;;;;;;;21.85;9.52;;;;;;;4.52;100.00;101333.56;5032546;28;20076;-72
2021/12/04 09:10:25;;;;;;;23.98;9.30;;;;;;;4.55;100.00;101333.75;5028563;28;20046;-72
2021/12/04 09:12:55;;;;;;;21.65;9.13;;;;;;;4.59;100.00;101328.03;5012572;28;20128;-72
2021/12/04 09:15:28;;;;;;;29.73;10.20;;;;;;;4.65;100.00;101323.28;5015480;28;20088;-72
2021/12/04 09:17:56;;;;;;;21.48;8.32;;;;;;;4.71;100.00;101321.09;5012914;28;20053;-72
2021/12/04 09:20:30;;;;;;;23.08;9.05;;;;;;;4.76;100.00;101319.69;5032302;28;20479;-72
2021/12/04 09:22:59;;;;;;;25.38;9.02;;;;;;;4.82;100.00;101321.75;5032425;28;20069;-72
2021/12/04 09:25:30;;;;;;;21.98;8.85;;;;;;;4.89;100.00;101325.59;5030791;28;20479;-71
2021/12/04 09:28:08;;;;;;;28.27;9.43;;;;;;;4.92;100.00;101321.50;5032041;28;20045;-72
2021/12/04 10:01:18;;;;;;;31.58;9.82;;;;;;;5.23;100.00;101314.00;5031651;28;20149;-71
2021/12/04 10:20:53;;;;;;;16.20;8.13;;;;;;;5.53;100.00;101332.03;4989638;28;20058;-71
2021/12/04 10:34:50;;;;;;;19.08;8.32;;;;;;;5.67;100.00;101366.22;4970019;28;20508;-72
2021/12/04 10:37:25;;;;;;;15.55;7.82;;;;;;;5.69;100.00;101371.44;4970093;28;20058;-72
2021/12/04 10:39:54;;;;;;;20.58;8.63;;;;;;;5.71;100.00;101370.72;4999976;28;20081;-71
2021/12/04 10:42:26;;;;;;;33.53;9.20;;;;;;;5.73;100.00;101373.41;5031992;28;20053;-71
2021/12/04 10:44:57;;;;;;;22.75;10.07;;;;;;;5.74;100.00;101368.34;5030876;28;20049;-72
2021/12/04 10:47:27;;;;;;;24.73;9.52;;;;;;;5.75;100.00;101361.50;5031299;28;20091;-72
2021/12/04 10:50:09;;;;;;;22.20;9.25;;;;;;;5.75;100.00;101366.66;5031096;28;20049;-72
2021/12/04 10:52:52;;;;;;;19.30;8.43;;;;;;;5.77;100.00;101365.97;5030396;28;20084;-71
2021/12/04 10:55:24;;;;;;;24.75;8.73;;;;;;;5.76;100.00;101364.19;5030753;28;20084;-72
2021/12/04 10:58:26;;;;;;;22.38;8.00;;;;;;;5.76;100.00;101363.31;5030912;28;20046;-72
2021/12/04 11:01:04;;;;;;;20.33;8.70;;;;;;;5.77;100.00;101349.66;5030880;28;20099;-72
2021/12/04 11:03:43;;;;;;;20.38;9.30;;;;;;;5.76;100.00;101347.91;5032023;28;20503;-71
2021/12/04 11:26:35;;;;;;;19.65;8.65;;;;;;;5.63;100.00;101352.28;5068456;28;20060;-71
2021/12/04 11:40:26;;;;;;;17.58;7.20;;;;;;;5.74;100.00;101360.63;5034910;28;20049;-71
2021/12/04 11:43:02;;;;;;;18.33;8.45;;;;;;;5.75;100.00;101354.72;5047484;28;20049;-71
2021/12/04 11:45:43;;;;;;;22.17;7.90;;;;;;;5.75;100.00;101356.38;5064635;28;20482;-71
2021/12/04 11:48:12;;;;;;;19.27;8.55;;;;;;;5.78;100.00;101354.88;5067775;28;20060;-72
2021/12/04 11:50:42;;;;;;;17.55;8.30;;;;;;;5.82;100.00;101363.66;5067513;28;20052;-72
2021/12/04 11:53:16;;;;;;;19.95;7.85;;;;;;;5.83;100.00;101355.16;5067230;28;20049;-71
2021/12/04 11:55:47;;;;;;;18.75;8.45;;;;;;;5.85;100.00;101348.44;5067451;28;20409;-71
2021/12/04 11:58:23;;;;;;;19.23;7.72;;;;;;;5.83;100.00;101350.03;5067382;28;20055;-71
2021/12/04 12:00:54;;;;;;;18.63;7.90;;;;;;;5.81;100.00;101352.47;5067119;28;20417;-71
2021/12/04 12:03:24;;;;;;;21.38;9.13;;;;;;;5.84;100.00;101356.91;5066703;28;20049;-70
2021/12/04 12:05:55;;;;;;;17.55;7.47;;;;;;;5.87;100.00;101359.69;5067330;28;20041;-71
2021/12/04 12:08:27;;;;;;;17.75;8.10;;;;;;;5.86;100.00;101351.09;5056193;28;20057;-71
2021/12/04 12:11:01;;;;;;;14.15;7.05;;;;;;;5.86;100.00;101345.03;5047138;28;20041;-71
2021/12/04 12:13:37;;;;;;;25.33;8.18;;;;;;;5.90;100.00;101351.25;5047137;28;20132;-71
2021/12/04 12:16:10;;;;;;;17.50;8.02;;;;;;;5.93;100.00;101344.59;5051461;28;20053;-71
2021/12/04 12:18:45;;;;;;;;;;;;;;;5.98;100.00;101356.09;5049647;28;20106;-71
2021/12/04 12:21:16;;;;;;;15.18;7.45;;;;;;;6.00;100.00;101356.16;5054661;28;20378;-71
2021/12/04 12:26:55;;;;;;;19.65;7.82;;;;;;;6.05;100.00;101362.47;5053442;28;20060;-71
2021/12/04 12:38:18;;;;;;;15.00;7.45;;;;;;;6.19;100.00;101386.38;5052678;28;20055;-71
2021/12/04 12:40:59;;;;;;;14.77;7.88;;;;;;;6.20;100.00;101396.72;5033573;28;20042;-71
2021/12/04 12:43:49;;;;;;;13.05;7.10;;;;;;;6.24;100.00;101405.50;5034400;28;20044;-71
2021/12/04 12:46:19;;;;;;;16.63;7.03;;;;;;;6.26;100.00;101403.91;5031045;28;20077;-71
2021/12/04 12:48:52;;;;;;;19.83;7.63;;;;;;;6.24;100.00;101406.38;5033317;28;20143;-72
2021/12/04 12:51:32;;;;;;;17.20;7.22;;;;;;;6.24;100.00;101396.09;5033846;28;20514;-71
2021/12/04 12:54:04;;;;;;;17.55;6.95;;;;;;;6.24;100.00;101400.38;5033031;28;20046;-71
2021/12/04 12:56:35;;;;;;;12.13;6.65;;;;;;;6.26;100.00;101414.19;5033094;28;20604;-71
2021/12/04 12:59:06;;;;;;;17.02;7.75;;;;;;;6.29;100.00;101409.22;5033120;28;20052;-71
2021/12/04 13:13:43;;;;;;;15.55;7.55;;;;;;;6.41;100.00;101389.34;5022789;28;20104;-71
2021/12/04 13:16:18;;;;;;;16.88;6.75;;;;;;;6.43;100.00;101390.31;5055924;28;20057;-71
2021/12/04 13:18:58;;;;;;;17.17;7.63;;;;;;;6.39;100.00;101379.78;5042940;28;20075;-71
2021/12/04 13:21:28;;;;;;;15.18;6.25;;;;;;;6.49;100.00;101398.38;5032731;28;20124;-71
2021/12/04 13:23:58;;;;;;;21.02;6.38;;;;;;;6.50;100.00;101392.47;5032278;28;20050;-71
2021/12/04 13:26:31;;;;;;;17.23;6.40;;;;;;;6.50;100.00;101389.88;5032611;28;20128;-71
2021/12/04 13:29:02;;;;;;;16.55;7.38;;;;;;;6.52;100.00;101401.94;5032739;28;20502;-70
2021/12/04 13:31:30;;;;;;;22.38;6.55;;;;;;;6.53;100.00;101399.44;5031823;28;20474;-71
2021/12/04 13:34:00;;;;;;;15.40;6.93;;;;;;;6.53;100.00;101413.97;5031961;28;20541;-70
2021/12/04 13:36:31;;;;;;;15.10;6.35;;;;;;;6.53;100.00;101425.16;5032796;28;20041;-71
2021/12/04 13:39:01;;;;;;;16.73;7.10;;;;;;;6.53;100.00;101424.25;5032308;28;20557;-71
2021/12/04 13:41:30;;;;;;;15.27;6.63;;;;;;;6.55;100.00;101426.13;5032482;28;20053;-71
2021/12/04 13:44:02;;;;;;;15.32;7.13;;;;;;;6.55;100.00;101422.66;5031977;28;20049;-71
2021/12/04 13:46:38;;;;;;;19.27;7.30;;;;;;;6.55;100.00;101438.09;5032503;28;20084;-71
2021/12/04 13:49:09;;;;;;;19.17;8.35;;;;;;;6.56;100.00;101434.72;5031877;28;20049;-72
2021/12/04 13:51:38;;;;;;;14.85;7.15;;;;;;;6.58;100.00;101439.16;5052052;28;20053;-71
2021/12/04 13:54:07;;;;;;;17.70;7.30;;;;;;;6.58;100.00;101441.72;5051764;28;20102;-71
2021/12/04 13:56:36;;;;;;;21.50;8.73;;;;;;;6.57;100.00;101444.19;5052065;28;20407;-71
2021/12/04 13:59:07;;;;;;;22.00;8.70;;;;;;;6.56;100.00;101450.16;5051717;28;20056;-71
2021/12/04 14:01:42;;;;;;;20.48;8.82;;;;;;;6.54;100.00;101456.91;5051815;28;20076;-71
2021/12/04 14:04:17;;;;;;;19.15;7.28;;;;;;;6.51;100.00;101457.59;5051543;28;20484;-71
2021/12/04 14:06:54;;;;;;;18.83;7.53;;;;;;;6.49;100.00;101460.09;5051994;28;20046;-71
2021/12/04 14:09:23;;;;;;;16.70;7.28;;;;;;;6.48;100.00;101453.19;5067356;27;20060;-71
2021/12/04 14:11:54;;;;;;;24.77;7.13;;;;;;;6.44;100.00;101430.66;5055578;28;20330;-71
2021/12/04 14:14:24;;;;;;;19.40;7.72;;;;;;;6.37;100.00;101427.63;5051961;28;20503;-71
2021/12/04 14:16:55;;;;;;;13.25;6.25;;;;;;;6.31;100.00;101445.31;5054886;28;20044;-70
2021/12/04 14:19:28;;;;;;;16.77;7.03;;;;;;;6.28;100.00;101449.47;5051529;28;20049;-71
2021/12/04 14:21:59;;;;;;;14.43;6.55;;;;;;;6.29;100.00;101450.34;5052082;28;20107;-71
2021/12/04 14:24:31;;;;;;;17.55;7.93;;;;;;;6.29;100.00;101455.47;5052000;28;20049;-70
2021/12/04 14:27:02;;;;;;;22.75;6.38;;;;;;;6.28;100.00;101453.72;5051754;28;20041;-72